Aérodrome :
LOGIN :

S'inscrire | Disclaimer

   EN    FR    IT 

 










Légende :    VFR   VFR Marginal   IFR   IFR Intensif   IFR Très Intensif
Visi : 
Plafond : 
>= 8 km
>= 3000ft
5 à 8 km
1000 à 3000 ft
1500m à 5 km
500 à 1000 ft
800 à 1500m
200 à 500 ft
< 800m
< 200 ft
Symboles :   Orages  Brouillard  Fortes neiges  Fortes précipitations  Vent > 20 kt
SIGMETs :   Divers  Orages  Givrage  Turbulence  Onde Orograph.  Cendres Volcan.







- Altitude de l'aérodrome : 646 ft
- Code IATA : VNO


EYVI - Vilnius int.

DERNIER METAR :
  • 201850Z 19009KT 9999 FEW045CB SCT082 BKN120 19/18 Q1011 NOSIG

METARs EXPIRÉS :
  • 201820Z 17009KT 9999 SCT035CB BKN097 19/17 Q1011 NOSIG
  • 201750Z 16011KT 9999 SCT035CB BKN080 19/17 Q1012 NOSIG
  • 201720Z 15013KT 9999 VCSH SCT031CB BKN140 20/18 Q1012 NOSIG
  • 201650Z 14013KT 9999 VCSH SCT031CB BKN100 20/18 Q1011 RESHRA NOSIG
  • 201620Z 17010KT 9999 -SHRA VCTS BKN047CB 20/19 Q1012 NOSIG
  • 201607Z 18008KT 9999 -SHRA VCTS BKN047CB OVC089 21/18 Q1011 NOSIG

TAF TAF EYVI
Valide du 20 à 18h jusqu'au 21 à 18h UTC


201704Z 2018/2118 15010KT 9000 BKN030
TEMPO 2018/2021 VRB25KT 3000 TSRA BKN005 BKN020CB
TEMPO 2021/2103 3000 MIFG BR BKN004
TEMPO 2103/2108 5000 TSRA BKN008 BKN025CB
TEMPO 2108/2112 BKN020CB
TEMPO 2112/2118 VRB25KT 5000 TSRA BKN025CB
Pas de NOTAMs connus pour ce terrain.



MET'MAP, la Météo Aéronautique d'un coup d'oeil ! - Copyright ORBIFLY Décembre 2007 - Disclaimer

ORBIFLY MET'MAP TEAM :

Programmation & Développement : Alexandra Zaïnal
Conception & Développement : Baudouin d'Aumeries
Co-Programmation & Développement : Marc-Olivier Méhu
Soutien technique & logistique : Manuel Goepfert

Contact : metmap@orbifly.com




SOURCES & CREDITS :

   NOAA